createdAt,value
2023-01-26T00:00:26.538Z,20.27
2023-01-26T00:02:30.722Z,20.35
2023-01-26T00:04:33.596Z,21.13
2023-01-26T00:06:36.393Z,20.13
2023-01-26T00:08:39.418Z,19.85
2023-01-26T00:10:50.071Z,21.13
2023-01-26T00:12:52.883Z,20.90
2023-01-26T00:14:55.612Z,21.40
2023-01-26T00:16:58.474Z,21.40
2023-01-26T00:19:03.535Z,21.02
2023-01-26T00:21:08.612Z,20.48
2023-01-26T00:23:11.387Z,21.38
2023-01-26T00:25:14.126Z,21.05
2023-01-26T00:27:16.919Z,20.40
2023-01-26T00:29:19.738Z,20.23
2023-01-26T00:31:24.289Z,19.90
2023-01-26T00:33:28.487Z,21.05
2023-01-26T00:35:32.637Z,20.48
2023-01-26T00:37:35.458Z,21.63
2023-01-26T00:39:38.347Z,20.65
2023-01-26T00:41:58.628Z,21.25
2023-01-26T00:44:01.699Z,19.30
2023-01-26T00:46:04.609Z,20.70
2023-01-26T00:48:08.442Z,21.35
2023-01-26T00:50:12.559Z,21.13
2023-01-26T00:52:17.098Z,20.33
2023-01-26T00:54:19.987Z,21.55
2023-01-26T00:56:22.770Z,20.27
2023-01-26T00:58:25.700Z,20.25
2023-01-26T01:00:29.802Z,19.70
2023-01-26T01:02:32.818Z,19.88
2023-01-26T01:04:35.636Z,19.40
2023-01-26T01:06:38.710Z,18.88
2023-01-26T01:08:42.858Z,21.65
2023-01-26T01:10:45.664Z,19.65
2023-01-26T01:12:48.640Z,21.63
2023-01-26T01:14:52.377Z,20.42
2023-01-26T01:16:55.203Z,19.42
2023-01-26T01:18:58.396Z,19.55
2023-01-26T01:21:01.220Z,17.38
2023-01-26T01:23:04.013Z,18.90
2023-01-26T01:25:08.739Z,19.77
2023-01-26T01:29:15.088Z,19.83
2023-01-26T01:31:18.158Z,22.52
2023-01-26T01:33:21.291Z,21.23
2023-01-26T01:35:24.090Z,21.60
2023-01-26T01:37:26.946Z,20.00
2023-01-26T01:39:29.950Z,20.00
2023-01-26T01:41:34.135Z,18.10
2023-01-26T01:43:37.869Z,20.92
2023-01-26T01:45:44.269Z,20.23
2023-01-26T01:47:47.345Z,20.60
2023-01-26T01:49:53.457Z,22.50
2023-01-26T01:52:00.990Z,21.92
2023-01-26T01:54:08.398Z,21.50
2023-01-26T01:56:14.386Z,19.98
2023-01-26T01:58:19.442Z,19.08
2023-01-26T02:02:25.983Z,19.05
2023-01-26T02:04:29.239Z,18.83
2023-01-26T02:06:36.328Z,19.67
2023-01-26T02:08:41.914Z,16.77
2023-01-26T02:10:50.335Z,18.95
2023-01-26T02:12:56.735Z,17.38
2023-01-26T02:15:02.358Z,18.83
2023-01-26T02:17:05.134Z,15.68
2023-01-26T02:19:15.620Z,16.55
2023-01-26T02:21:22.538Z,17.67
2023-01-26T02:23:37.094Z,16.92
2023-01-26T02:25:46.030Z,17.10
2023-01-26T02:27:50.439Z,15.68
2023-01-26T02:29:54.767Z,17.88
2023-01-26T02:31:58.548Z,18.30
2023-01-26T02:34:01.454Z,18.33
2023-01-26T02:36:06.047Z,18.65
2023-01-26T02:38:09.578Z,18.98
2023-01-26T02:40:20.188Z,19.52
2023-01-26T02:42:41.945Z,18.38
2023-01-26T02:44:46.295Z,19.55
2023-01-26T02:46:49.133Z,20.65
2023-01-26T02:49:10.103Z,18.52
2023-01-26T02:51:13.094Z,20.33
2023-01-26T02:53:15.882Z,19.85
2023-01-26T02:55:25.047Z,19.58
2023-01-26T02:57:28.266Z,18.17
2023-01-26T02:59:31.077Z,17.83
2023-01-26T03:01:35.250Z,16.30
2023-01-26T03:03:46.741Z,16.15
2023-01-26T03:05:50.649Z,18.33
2023-01-26T03:07:53.954Z,16.90
2023-01-26T03:09:59.809Z,17.90
2023-01-26T03:12:02.665Z,18.27
2023-01-26T03:14:05.558Z,18.10
2023-01-26T03:16:10.216Z,19.25
2023-01-26T03:18:34.170Z,17.45
2023-01-26T03:20:56.310Z,16.13
2023-01-26T03:23:17.096Z,17.30
2023-01-26T03:25:37.531Z,15.10
2023-01-26T03:27:43.935Z,15.52
2023-01-26T03:29:48.449Z,14.95
2023-01-26T03:31:51.493Z,15.20
2023-01-26T03:33:56.208Z,15.80
2023-01-26T03:35:59.061Z,14.65
2023-01-26T03:38:02.460Z,15.23
2023-01-26T03:40:36.619Z,15.55
2023-01-26T03:42:57.349Z,13.88
2023-01-26T03:45:18.052Z,14.15
2023-01-26T03:47:38.479Z,15.13
2023-01-26T03:50:00.401Z,15.20
2023-01-26T03:52:21.067Z,15.65
2023-01-26T03:54:42.719Z,15.75
2023-01-26T03:56:45.595Z,15.45
2023-01-26T03:58:53.064Z,15.90
2023-01-26T04:00:58.332Z,15.18
2023-01-26T04:03:18.957Z,12.95
2023-01-26T04:05:40.569Z,11.15
2023-01-26T04:08:01.060Z,12.30
2023-01-26T04:10:04.369Z,11.25
2023-01-26T04:12:10.183Z,11.20
2023-01-26T04:14:38.088Z,11.57
2023-01-26T04:17:11.936Z,11.65
2023-01-26T04:19:32.552Z,9.52
2023-01-26T04:21:37.519Z,10.43
2023-01-26T04:23:48.354Z,9.55
2023-01-26T04:25:51.256Z,10.25
2023-01-26T04:27:54.664Z,9.70
2023-01-26T04:29:58.077Z,10.43
2023-01-26T04:32:00.881Z,10.07
2023-01-26T04:34:06.521Z,9.80
2023-01-26T04:38:18.380Z,9.00
2023-01-26T04:40:21.502Z,9.82
2023-01-26T04:42:25.376Z,8.68
2023-01-26T04:44:28.780Z,8.50
2023-01-26T04:46:33.946Z,7.47
2023-01-26T04:48:38.817Z,8.32
2023-01-26T04:50:42.139Z,8.48
2023-01-26T04:52:44.970Z,9.18
2023-01-26T04:54:49.274Z,9.82
2023-01-26T04:56:52.180Z,8.45
2023-01-26T04:58:56.320Z,9.88
2023-01-26T05:03:02.836Z,8.52
2023-01-26T05:05:06.481Z,9.48
2023-01-26T05:07:09.256Z,8.07
2023-01-26T05:09:12.602Z,9.73
2023-01-26T05:11:19.088Z,9.55
2023-01-26T05:13:30.985Z,9.25
2023-01-26T05:15:58.570Z,8.60
2023-01-26T05:18:21.739Z,9.82
2023-01-26T05:20:50.941Z,8.70
2023-01-26T05:22:58.689Z,10.70
2023-01-26T05:25:30.850Z,9.10
2023-01-26T05:27:40.342Z,8.40
2023-01-26T05:29:44.040Z,9.73
2023-01-26T05:31:47.414Z,8.27
2023-01-26T05:33:50.386Z,8.73
2023-01-26T05:35:59.123Z,9.63
2023-01-26T05:38:01.996Z,8.85
2023-01-26T05:40:08.602Z,8.10
2023-01-26T05:42:12.519Z,9.17
2023-01-26T05:44:36.971Z,8.98
2023-01-26T05:46:47.864Z,8.38
2023-01-26T05:48:51.250Z,7.95
2023-01-26T05:50:57.488Z,8.27
2023-01-26T05:53:02.981Z,9.40
2023-01-26T05:55:07.801Z,9.30
2023-01-26T05:57:11.851Z,8.10
2023-01-26T05:59:19.634Z,8.43
2023-01-26T06:01:24.081Z,8.20
2023-01-26T06:03:33.235Z,9.32
2023-01-26T06:05:36.129Z,10.90
2023-01-26T06:07:45.217Z,8.52
2023-01-26T06:09:53.507Z,8.35
2023-01-26T06:12:20.111Z,8.60
2023-01-26T06:14:44.626Z,9.05
2023-01-26T06:16:50.380Z,9.93
2023-01-26T06:18:54.100Z,9.10
2023-01-26T06:21:00.829Z,8.32
2023-01-26T06:23:03.626Z,8.60
2023-01-26T06:25:10.306Z,8.32
2023-01-26T06:27:14.644Z,8.23
2023-01-26T06:29:18.983Z,10.05
2023-01-26T06:31:24.179Z,8.98
2023-01-26T06:33:29.429Z,10.32
2023-01-26T06:35:32.177Z,9.75
2023-01-26T06:37:37.841Z,10.65
2023-01-26T06:39:41.523Z,12.75
2023-01-26T06:41:45.206Z,14.52
2023-01-26T06:43:49.710Z,12.27
2023-01-26T06:45:52.702Z,14.85
2023-01-26T06:47:57.166Z,12.23
2023-01-26T06:50:01.912Z,10.70
2023-01-26T06:52:22.702Z,11.68
2023-01-26T06:54:28.170Z,10.00
2023-01-26T06:57:00.579Z,10.98
2023-01-26T06:59:24.898Z,11.27
2023-01-26T07:01:48.714Z,10.95
2023-01-26T07:03:52.572Z,10.98
2023-01-26T07:05:56.683Z,10.07
2023-01-26T07:08:02.313Z,9.68
2023-01-26T07:10:06.754Z,9.98
2023-01-26T07:12:10.018Z,9.95
2023-01-26T07:14:12.768Z,9.82
2023-01-26T07:16:17.522Z,9.05
2023-01-26T07:18:20.257Z,8.20
2023-01-26T07:20:23.023Z,10.07
2023-01-26T07:22:27.151Z,8.63
2023-01-26T07:24:30.330Z,9.48
2023-01-26T07:26:33.075Z,9.00
2023-01-26T07:28:35.819Z,8.43
2023-01-26T07:30:38.674Z,8.65
2023-01-26T07:32:42.064Z,8.82
2023-01-26T07:34:44.891Z,7.97
2023-01-26T07:36:47.665Z,8.50
2023-01-26T07:38:51.819Z,8.65
2023-01-26T07:40:54.772Z,9.02
2023-01-26T07:42:59.073Z,8.43
2023-01-26T07:45:24.027Z,7.63
2023-01-26T07:47:26.962Z,7.20
2023-01-26T07:49:29.856Z,6.30
2023-01-26T07:51:32.697Z,7.65
2023-01-26T07:53:39.220Z,7.53
2023-01-26T07:55:44.175Z,7.10
2023-01-26T07:59:53.129Z,7.57
2023-01-26T08:01:56.085Z,9.13
2023-01-26T08:03:59.088Z,7.93
2023-01-26T08:06:01.992Z,7.22
2023-01-26T08:08:08.545Z,6.47
2023-01-26T08:10:12.596Z,6.82
2023-01-26T08:12:16.868Z,6.90
2023-01-26T08:14:19.699Z,5.65
2023-01-26T08:16:22.676Z,6.75
2023-01-26T08:18:25.559Z,6.95
2023-01-26T08:20:28.368Z,7.93
2023-01-26T08:22:31.310Z,6.07
2023-01-26T08:24:34.107Z,7.90
2023-01-26T08:26:37.938Z,6.50
2023-01-26T08:28:42.561Z,6.82
2023-01-26T08:30:45.385Z,6.57
2023-01-26T08:32:48.193Z,6.78
2023-01-26T08:34:51.391Z,6.40
2023-01-26T08:36:54.211Z,6.03
2023-01-26T08:38:57.094Z,7.05
2023-01-26T08:41:00.395Z,6.50
2023-01-26T08:43:03.553Z,5.60
2023-01-26T08:45:09.581Z,6.10
2023-01-26T08:47:12.402Z,5.88
2023-01-26T08:49:15.272Z,6.05
2023-01-26T08:51:18.316Z,5.43
2023-01-26T08:53:21.218Z,6.45
2023-01-26T08:55:24.151Z,5.43
2023-01-26T08:57:26.942Z,6.55
2023-01-26T08:59:29.835Z,6.65
2023-01-26T09:01:33.983Z,5.97
2023-01-26T09:03:36.810Z,5.55
2023-01-26T09:05:41.164Z,6.20
2023-01-26T09:07:44.206Z,6.65
2023-01-26T09:09:49.049Z,5.20
2023-01-26T09:11:52.380Z,5.60
2023-01-26T09:13:56.622Z,5.93
2023-01-26T09:16:00.364Z,5.00
2023-01-26T09:18:04.578Z,5.32
2023-01-26T09:20:09.847Z,5.80
2023-01-26T09:22:12.877Z,5.82
2023-01-26T09:24:15.774Z,5.03
2023-01-26T09:26:18.651Z,6.03
2023-01-26T09:28:21.619Z,5.40
2023-01-26T09:30:24.862Z,5.18
2023-01-26T09:32:27.950Z,4.72
2023-01-26T09:34:32.362Z,5.25
2023-01-26T09:36:35.120Z,5.35
2023-01-26T09:38:38.697Z,8.27
2023-01-26T09:40:51.093Z,5.53
2023-01-26T09:43:12.613Z,5.53
2023-01-26T09:45:25.227Z,5.55
2023-01-26T09:47:35.535Z,5.82
2023-01-26T09:49:48.276Z,5.85
2023-01-26T09:52:00.601Z,4.90
2023-01-26T09:54:15.921Z,4.22
2023-01-26T09:56:20.488Z,5.30
2023-01-26T09:58:31.687Z,4.38
2023-01-26T10:00:40.159Z,5.07
2023-01-26T10:02:56.335Z,4.95
2023-01-26T10:05:05.731Z,5.13
2023-01-26T10:07:12.388Z,5.43
2023-01-26T10:09:25.155Z,4.72
2023-01-26T10:11:33.089Z,4.60
2023-01-26T10:13:36.225Z,4.75
2023-01-26T10:15:43.212Z,4.70
2023-01-26T10:17:48.258Z,3.97
2023-01-26T10:21:58.543Z,3.55
2023-01-26T10:24:02.981Z,3.50
2023-01-26T10:26:14.306Z,3.55
2023-01-26T10:28:20.498Z,3.50
2023-01-26T10:30:23.533Z,12.52
2023-01-26T10:32:26.636Z,6.80
2023-01-26T10:34:29.980Z,6.65
2023-01-26T10:36:33.461Z,4.32
2023-01-26T10:38:43.559Z,3.53
2023-01-26T10:40:46.374Z,3.25
2023-01-26T10:42:57.740Z,3.72
2023-01-26T10:45:02.505Z,3.75
2023-01-26T10:47:16.453Z,3.92
2023-01-26T10:49:21.993Z,3.53
2023-01-26T10:51:27.969Z,3.88
2023-01-26T10:53:30.940Z,3.90
2023-01-26T10:55:37.238Z,4.43
2023-01-26T10:57:42.602Z,4.18
2023-01-26T10:59:51.995Z,3.88
2023-01-26T11:01:57.218Z,4.15
2023-01-26T11:04:05.573Z,3.95
2023-01-26T11:06:14.527Z,3.83
2023-01-26T11:08:33.429Z,4.97
2023-01-26T11:10:39.820Z,5.53
2023-01-26T11:12:42.649Z,5.47
2023-01-26T11:15:01.457Z,5.05
2023-01-26T11:17:16.067Z,5.70
2023-01-26T11:19:42.276Z,7.15
2023-01-26T11:21:48.482Z,5.88
2023-01-26T11:24:01.390Z,6.40
2023-01-26T11:26:38.815Z,6.60
2023-01-26T11:28:57.161Z,6.85
2023-01-26T11:31:17.292Z,8.25
2023-01-26T11:33:30.054Z,6.80
2023-01-26T11:35:43.439Z,6.72
2023-01-26T11:37:49.254Z,6.07
2023-01-26T11:40:00.502Z,6.68
2023-01-26T11:42:20.859Z,6.95
2023-01-26T11:44:49.910Z,6.97
2023-01-26T11:47:06.720Z,6.80
2023-01-26T11:49:24.898Z,6.95
2023-01-26T11:51:41.155Z,6.75
2023-01-26T11:54:06.724Z,6.80
2023-01-26T11:56:22.230Z,8.57
2023-01-26T12:00:41.459Z,7.80
2023-01-26T12:02:55.024Z,6.22
2023-01-26T12:05:03.242Z,6.93
2023-01-26T12:07:12.314Z,6.72
2023-01-26T12:09:21.326Z,6.35
2023-01-26T12:11:30.306Z,6.70
2023-01-26T12:13:39.972Z,7.38
2023-01-26T12:15:51.028Z,7.95
2023-01-26T12:18:00.662Z,8.13
2023-01-26T12:20:14.311Z,7.55
2023-01-26T12:22:23.513Z,8.55
2023-01-26T12:25:04.781Z,8.30
2023-01-26T12:27:04.741Z,8.75
2023-01-26T12:29:17.325Z,9.38
2023-01-26T12:31:28.947Z,8.60
2023-01-26T12:33:33.374Z,8.25
2023-01-26T12:35:53.354Z,10.02
2023-01-26T12:38:17.036Z,9.02
2023-01-26T12:40:33.973Z,9.45
2023-01-26T12:42:45.601Z,8.70
2023-01-26T12:44:55.009Z,9.65
2023-01-26T12:47:07.755Z,10.57
2023-01-26T12:49:18.433Z,10.52
2023-01-26T12:51:26.817Z,11.45
2023-01-26T12:53:35.144Z,11.73
2023-01-26T12:55:43.957Z,10.52
2023-01-26T12:57:51.647Z,10.80
2023-01-26T13:00:05.668Z,10.77
2023-01-26T13:02:21.828Z,10.48
2023-01-26T13:04:24.948Z,11.60
2023-01-26T13:06:29.028Z,11.27
2023-01-26T13:08:51.398Z,10.30
2023-01-26T13:10:54.187Z,11.05
2023-01-26T13:12:59.975Z,10.88
2023-01-26T13:15:07.810Z,10.32
2023-01-26T13:17:43.599Z,10.43
2023-01-26T13:19:53.984Z,10.63
2023-01-26T13:21:56.738Z,10.52
2023-01-26T13:23:59.572Z,9.75
2023-01-26T13:26:26.137Z,11.02
2023-01-26T13:28:29.997Z,10.85
2023-01-26T13:30:47.161Z,10.32
2023-01-26T13:32:54.261Z,10.00
2023-01-26T13:34:58.707Z,11.73
2023-01-26T13:37:10.154Z,10.30
2023-01-26T13:39:22.193Z,11.73
2023-01-26T13:41:25.071Z,11.48
2023-01-26T13:43:33.754Z,11.77
2023-01-26T13:45:41.375Z,11.65
2023-01-26T13:47:50.171Z,11.00
2023-01-26T13:49:52.991Z,12.43
2023-01-26T13:51:55.818Z,12.38
2023-01-26T13:54:01.891Z,13.45
2023-01-26T13:56:07.285Z,11.90
2023-01-26T13:58:13.606Z,11.05
2023-01-26T14:00:17.612Z,11.65
2023-01-26T14:02:25.952Z,11.07
2023-01-26T14:04:32.179Z,11.48
2023-01-26T14:06:37.162Z,11.85
2023-01-26T14:10:43.983Z,11.57
2023-01-26T14:12:49.078Z,10.95
2023-01-26T14:14:55.822Z,11.50
2023-01-26T14:16:59.811Z,10.57
2023-01-26T14:19:14.135Z,10.13
2023-01-26T14:21:20.860Z,11.77
2023-01-26T14:23:23.780Z,11.45
2023-01-26T14:25:26.613Z,11.40
2023-01-26T14:27:36.582Z,10.38
2023-01-26T14:29:40.237Z,9.65
2023-01-26T14:31:43.114Z,11.48
2023-01-26T14:33:46.261Z,11.63
2023-01-26T14:35:57.047Z,10.63
2023-01-26T14:38:14.815Z,10.85
2023-01-26T14:40:23.282Z,11.25
2023-01-26T14:42:26.378Z,11.63
2023-01-26T14:44:29.341Z,10.55
2023-01-26T14:46:39.257Z,11.40
2023-01-26T14:48:48.053Z,10.75
2023-01-26T14:50:50.864Z,11.50
2023-01-26T14:52:55.408Z,11.43
2023-01-26T14:55:06.380Z,11.48
2023-01-26T14:57:18.472Z,11.90
2023-01-26T14:59:24.966Z,12.93
2023-01-26T15:01:28.743Z,12.15
2023-01-26T15:03:37.751Z,13.50
2023-01-26T15:05:42.390Z,10.80
2023-01-26T15:07:50.651Z,11.43
2023-01-26T15:09:57.098Z,11.80
2023-01-26T15:12:17.906Z,11.95
2023-01-26T15:14:34.217Z,12.98
2023-01-26T15:16:53.871Z,11.52
2023-01-26T15:19:02.405Z,11.85
2023-01-26T15:21:14.231Z,10.40
2023-01-26T15:23:24.133Z,11.23
2023-01-26T15:25:28.991Z,11.23
2023-01-26T15:27:35.072Z,10.50
2023-01-26T15:29:37.882Z,11.50
2023-01-26T15:31:43.062Z,11.70
2023-01-26T15:33:51.066Z,12.02
2023-01-26T15:35:59.125Z,12.85
2023-01-26T15:38:04.312Z,13.75
2023-01-26T15:40:08.549Z,13.32
2023-01-26T15:42:16.636Z,13.25
2023-01-26T15:44:22.307Z,13.02
2023-01-26T15:46:25.368Z,10.35
2023-01-26T15:48:31.637Z,13.05
2023-01-26T15:50:34.555Z,12.90
2023-01-26T15:52:37.387Z,12.15
2023-01-26T15:54:40.160Z,11.45
2023-01-26T15:56:43.100Z,12.80
2023-01-26T15:58:45.933Z,12.18
2023-01-26T16:00:52.322Z,10.57
2023-01-26T16:02:55.339Z,12.20
2023-01-26T16:04:58.146Z,12.82
2023-01-26T16:07:01.133Z,12.85
2023-01-26T16:09:04.318Z,13.15
2023-01-26T16:11:10.519Z,12.70
2023-01-26T16:13:14.763Z,12.48
2023-01-26T16:15:32.443Z,14.10
2023-01-26T16:17:36.606Z,11.90
2023-01-26T16:19:39.486Z,11.40
2023-01-26T16:21:45.888Z,12.43
2023-01-26T16:23:49.089Z,12.00
2023-01-26T16:25:52.641Z,12.07
2023-01-26T16:27:56.154Z,11.98
2023-01-26T16:29:59.017Z,12.38
2023-01-26T16:32:02.476Z,11.52
2023-01-26T16:34:06.678Z,10.55
2023-01-26T16:36:11.630Z,11.35
2023-01-26T16:40:19.213Z,10.85
2023-01-26T16:42:22.517Z,10.13
2023-01-26T16:44:25.444Z,10.35
2023-01-26T16:46:29.634Z,10.10
2023-01-26T16:48:34.738Z,10.00
2023-01-26T16:50:38.896Z,10.13
2023-01-26T16:52:42.250Z,10.15
2023-01-26T16:54:45.606Z,9.90
2023-01-26T16:56:48.387Z,10.55
2023-01-26T16:58:51.650Z,11.15
2023-01-26T17:00:55.115Z,14.95
2023-01-26T17:02:57.958Z,11.80
2023-01-26T17:05:00.790Z,13.02
2023-01-26T17:07:05.066Z,10.23
2023-01-26T17:09:07.963Z,10.68
2023-01-26T17:11:17.381Z,10.45
2023-01-26T17:13:20.222Z,11.05
2023-01-26T17:15:24.510Z,10.00
2023-01-26T17:17:27.395Z,9.38
2023-01-26T17:19:30.248Z,11.30
2023-01-26T17:21:33.122Z,10.23
2023-01-26T17:23:41.427Z,10.02
2023-01-26T17:25:44.239Z,11.07
2023-01-26T17:27:49.722Z,10.45
2023-01-26T17:29:52.626Z,10.27
2023-01-26T17:31:55.554Z,11.13
2023-01-26T17:33:58.356Z,10.23
2023-01-26T17:36:01.756Z,10.80
2023-01-26T17:38:05.188Z,10.88
2023-01-26T17:40:11.130Z,11.25
2023-01-26T17:42:14.213Z,11.85
2023-01-26T17:44:17.002Z,11.77
2023-01-26T17:46:21.902Z,10.75
2023-01-26T17:50:27.444Z,10.18
2023-01-26T17:52:31.304Z,11.73
2023-01-26T17:54:34.178Z,11.82
2023-01-26T17:56:38.334Z,12.52
2023-01-26T17:58:41.564Z,14.88
2023-01-26T18:00:44.513Z,11.27
2023-01-26T18:02:47.442Z,8.48
2023-01-26T18:04:50.240Z,9.13
2023-01-26T18:06:53.055Z,10.15
2023-01-26T18:08:55.832Z,9.40
2023-01-26T18:10:59.201Z,10.73
2023-01-26T18:13:03.380Z,10.10
2023-01-26T18:15:07.412Z,10.80
2023-01-26T18:17:10.305Z,10.57
2023-01-26T18:19:13.202Z,11.85
2023-01-26T18:21:17.787Z,10.90
2023-01-26T18:23:21.985Z,12.88
2023-01-26T18:25:24.845Z,12.25
2023-01-26T18:27:27.740Z,11.50
2023-01-26T18:29:32.025Z,11.98
2023-01-26T18:31:38.044Z,12.50
2023-01-26T18:33:41.190Z,11.48
2023-01-26T18:35:44.032Z,10.60
2023-01-26T18:37:46.982Z,10.73
2023-01-26T18:39:50.177Z,9.98
2023-01-26T18:41:52.930Z,11.48
2023-01-26T18:43:57.800Z,11.32
2023-01-26T18:48:06.689Z,10.88
2023-01-26T18:50:11.704Z,12.52
2023-01-26T18:54:17.800Z,12.70
2023-01-26T18:56:20.665Z,12.85
2023-01-26T18:58:23.533Z,11.85
2023-01-26T19:00:26.425Z,11.68
2023-01-26T19:02:33.487Z,12.82
2023-01-26T19:04:36.431Z,13.25
2023-01-26T19:06:39.218Z,12.95
2023-01-26T19:08:42.551Z,12.35
2023-01-26T19:10:45.370Z,13.63
2023-01-26T19:12:50.234Z,14.52
2023-01-26T19:14:53.040Z,16.50
2023-01-26T19:16:56.136Z,13.55
2023-01-26T19:19:06.716Z,15.48
2023-01-26T19:21:10.471Z,15.35
2023-01-26T19:23:13.243Z,13.18
2023-01-26T19:25:16.088Z,20.65
2023-01-26T19:27:18.931Z,15.80
2023-01-26T19:29:21.715Z,15.27
2023-01-26T19:31:26.245Z,16.15
2023-01-26T19:33:29.130Z,16.40
2023-01-26T19:35:33.424Z,16.05
2023-01-26T19:37:36.196Z,15.95
2023-01-26T19:39:38.968Z,16.95
2023-01-26T19:41:42.033Z,13.95
2023-01-26T19:43:45.317Z,14.43
2023-01-26T19:45:49.659Z,15.20
2023-01-26T19:47:52.529Z,14.55
2023-01-26T19:49:55.275Z,14.98
2023-01-26T19:51:59.511Z,16.85
2023-01-26T19:54:02.261Z,15.93
2023-01-26T19:56:09.646Z,16.40
2023-01-26T19:58:12.486Z,14.32
2023-01-26T20:00:16.128Z,14.88
2023-01-26T20:02:18.981Z,19.02
2023-01-26T20:04:21.813Z,18.63
2023-01-26T20:06:27.007Z,15.35
2023-01-26T20:08:31.875Z,18.00
2023-01-26T20:10:34.715Z,18.52
2023-01-26T20:12:37.563Z,19.05
2023-01-26T20:14:40.399Z,17.10
2023-01-26T20:16:43.209Z,18.00
2023-01-26T20:18:45.972Z,19.40
2023-01-26T20:20:52.737Z,20.23
2023-01-26T20:22:56.558Z,20.13
2023-01-26T20:25:01.029Z,19.58
2023-01-26T20:27:04.125Z,20.05
2023-01-26T20:29:08.140Z,20.05
2023-01-26T20:31:13.847Z,17.67
2023-01-26T20:33:17.143Z,17.77
2023-01-26T20:35:20.069Z,20.58
2023-01-26T20:37:22.916Z,18.15
2023-01-26T20:39:25.938Z,17.92
2023-01-26T20:41:32.169Z,18.90
2023-01-26T20:43:39.529Z,16.85
2023-01-26T20:45:44.409Z,17.10
2023-01-26T20:47:47.266Z,17.60
2023-01-26T20:49:52.795Z,19.00
2023-01-26T20:51:55.643Z,17.95
2023-01-26T20:54:01.076Z,17.38
2023-01-26T20:56:05.062Z,17.10
2023-01-26T20:58:09.331Z,15.90
2023-01-26T21:00:13.892Z,18.02
2023-01-26T21:02:17.307Z,16.42
2023-01-26T21:04:20.519Z,18.65
2023-01-26T21:06:26.033Z,18.30
2023-01-26T21:08:29.098Z,16.13
2023-01-26T21:10:31.880Z,17.60
2023-01-26T21:12:37.093Z,15.70
2023-01-26T21:14:41.313Z,16.50
2023-01-26T21:16:44.258Z,19.17
2023-01-26T21:18:47.431Z,17.55
2023-01-26T21:20:57.164Z,16.70
2023-01-26T21:23:00.545Z,18.60
2023-01-26T21:25:03.947Z,19.55
2023-01-26T21:27:07.146Z,17.85
2023-01-26T21:29:14.311Z,19.45
2023-01-26T21:31:22.095Z,19.40
2023-01-26T21:33:25.091Z,19.08
2023-01-26T21:35:27.923Z,18.90
2023-01-26T21:37:30.748Z,18.75
2023-01-26T21:39:33.655Z,17.00
2023-01-26T21:41:54.114Z,19.13
2023-01-26T21:43:57.503Z,17.27
2023-01-26T21:46:01.344Z,18.25
2023-01-26T21:48:24.618Z,18.27
2023-01-26T21:50:48.124Z,19.30
2023-01-26T21:52:59.298Z,18.42
2023-01-26T21:55:04.627Z,19.90
2023-01-26T21:57:23.729Z,18.75
2023-01-26T21:59:26.969Z,18.58
2023-01-26T22:01:34.384Z,20.10
2023-01-26T22:03:38.590Z,18.23
2023-01-26T22:05:41.374Z,19.17
2023-01-26T22:07:44.555Z,18.63
2023-01-26T22:09:47.379Z,18.40
2023-01-26T22:11:51.537Z,19.40
2023-01-26T22:13:54.947Z,20.38
2023-01-26T22:16:03.134Z,18.73
2023-01-26T22:18:07.113Z,19.27
2023-01-26T22:20:14.085Z,21.30
2023-01-26T22:22:17.139Z,20.63
2023-01-26T22:24:20.056Z,19.55
2023-01-26T22:26:23.841Z,20.02
2023-01-26T22:28:26.731Z,20.45
2023-01-26T22:30:29.550Z,20.05
2023-01-26T22:32:32.485Z,21.55
2023-01-26T22:34:35.667Z,21.48
2023-01-26T22:36:40.464Z,19.58
2023-01-26T22:38:44.023Z,21.40
2023-01-26T22:40:46.820Z,23.52
2023-01-26T22:42:49.815Z,21.33
2023-01-26T22:44:52.615Z,20.80
2023-01-26T22:46:58.060Z,22.10
2023-01-26T22:49:00.900Z,21.05
2023-01-26T22:51:07.912Z,18.25
2023-01-26T22:53:12.555Z,20.70
2023-01-26T22:55:15.626Z,21.42
2023-01-26T22:57:18.439Z,19.38
2023-01-26T22:59:21.270Z,21.30
2023-01-26T23:01:24.354Z,21.60
2023-01-26T23:03:27.159Z,20.65
2023-01-26T23:05:31.989Z,20.63
2023-01-26T23:07:34.748Z,20.63
2023-01-26T23:09:39.079Z,19.10
2023-01-26T23:11:42.368Z,20.05
2023-01-26T23:13:47.034Z,19.63
2023-01-26T23:15:49.808Z,21.92
2023-01-26T23:17:53.919Z,21.83
2023-01-26T23:19:56.726Z,21.77
2023-01-26T23:21:59.473Z,20.58
2023-01-26T23:24:02.338Z,23.75
2023-01-26T23:26:07.453Z,19.92
2023-01-26T23:28:10.293Z,20.60
2023-01-26T23:30:13.931Z,20.02
2023-01-26T23:32:16.939Z,17.98
2023-01-26T23:34:19.793Z,17.08
2023-01-26T23:36:22.589Z,18.10
2023-01-26T23:38:27.333Z,17.63
2023-01-26T23:40:30.167Z,17.15
2023-01-26T23:42:45.244Z,17.58
2023-01-26T23:44:57.205Z,17.20
2023-01-26T23:47:00.084Z,18.83
2023-01-26T23:49:02.916Z,18.15
2023-01-26T23:51:07.419Z,17.85
2023-01-26T23:53:10.901Z,17.92
2023-01-26T23:55:13.821Z,18.67
2023-01-26T23:57:16.639Z,18.65
2023-01-26T23:59:20.930Z,19.60
